Strona główna
METAR-TAF:

METAR-TAF

Lotnisko :

Platforma wiertnicza

Hoorn-a, Holandia

Szerokość geograficzna: 52-55-05N, Długość geograficzna: 4-09-01E, wysokość: 41 m

Aktualna obserwacja pogody

Raport powstał 11 minut temu, godzina 01:25 UTC
Wiatr 19 kt od południe
Temperatura 14°C
Wilgotność 100%
Ciśnienie 1019 hPa

METAR: EHQE 310125Z AUTO 19019KT //// // ////// 14/14 Q1019 RE//

czas: 02:36 (01:36 UTC)


TAF: brakujący

Obserwacja i prognoza pogody dla ponad 4000 lotnisk (raport METAR i TAF).

Dostępne stacje oznaczono żółtymi i czerwonymi punktami na mapie.

Najedź kursorem aby zobaczyć nazwę stacji.

Kliknij aby zobaczyć obserwacje i prognozy pogody.

Aby zmienić mapę: kliknij na zielony przycisk z czarnym krzyżykiem, aby powiększyć; na zielony przycisk z myślnikiem, aby pomniejszyć; na zielone strzałki, aby przejść do map sąsiednich.


METAR-TAF: